Time;durP1;ratioP1;P1;durP2;ratioP2;P2;SDS_P1;SDS_P2;PMS_P1;PMS_P2;Temp;Humidity;BMP_temperature;BMP_pressure;BME280_temperature;BME280_humidity;BME280_pressure;Samples;Min_cycle;Max_cycle;Signal;HPM_P1;HPM_P2
2023/06/20 00:00:30;;;;;;;13.57;10.10;;;;;;;;;;4939580;28;20039;-64
2023/06/20 00:02:55;;;;;;;13.63;9.73;;;;;;;;;;4943966;28;20069;-63
2023/06/20 00:05:20;;;;;;;13.55;10.57;;;;;;;;;;4945061;28;20012;-63
2023/06/20 00:07:46;;;;;;;13.30;10.55;;;;;;;;;;4950438;28;20031;-64
2023/06/20 00:10:11;;;;;;;12.53;9.87;;;;;;;;;;4942037;29;20121;-63
2023/06/20 00:12:36;;;;;;;13.90;10.70;;;;;;;;;;4943025;28;20485;-62
2023/06/20 00:15:02;;;;;;;14.05;10.60;;;;;;;;;;4945722;28;20495;-62
2023/06/20 00:17:27;;;;;;;12.73;10.47;;;;;;;;;;4947077;28;20054;-62
2023/06/20 00:19:52;;;;;;;13.50;10.20;;;;;;;;;;4951738;28;22489;-62
2023/06/20 00:22:17;;;;;;;12.83;10.37;;;;;;;;;;4949757;28;20110;-62
2023/06/20 00:24:42;;;;;;;12.73;9.97;;;;;;;;;;4947083;29;20061;-63
2023/06/20 00:27:07;;;;;;;12.87;10.10;;;;;;;;;;4949045;28;20023;-64
2023/06/20 00:29:33;;;;;;;14.05;10.00;;;;;;;;;;4948836;28;20035;-62
2023/06/20 00:31:58;;;;;;;11.98;9.93;;;;;;;;;;4938071;28;20023;-62
2023/06/20 00:34:23;;;;;;;15.90;10.37;;;;;;;;;;4949449;28;20106;-63
2023/06/20 00:36:48;;;;;;;13.57;10.20;;;;;;;;;;4951489;28;20095;-62
2023/06/20 00:39:13;;;;;;;14.45;9.50;;;;;;;;;;4947757;28;20107;-63
2023/06/20 00:41:39;;;;;;;12.17;9.93;;;;;;;;;;4945401;28;20046;-62
2023/06/20 00:44:04;;;;;;;18.00;10.83;;;;;;;;;;4950204;28;20110;-62
2023/06/20 00:46:34;;;;;;;13.68;10.15;;;;;;;;;;4946745;28;20047;-62
2023/06/20 00:48:59;;;;;;;13.65;10.57;;;;;;;;;;4951854;28;20023;-62
2023/06/20 00:51:28;;;;;;;13.97;9.80;;;;;;;;;;4941299;28;20020;-62
2023/06/20 00:53:53;;;;;;;14.70;10.57;;;;;;;;;;4941875;29;20118;-62
2023/06/20 00:56:18;;;;;;;12.13;9.93;;;;;;;;;;4943033;28;20118;-61
2023/06/20 00:58:43;;;;;;;13.07;10.47;;;;;;;;;;4946380;28;20026;-63
2023/06/20 01:01:08;;;;;;;13.25;10.00;;;;;;;;;;4944597;28;20440;-62
2023/06/20 01:03:36;;;;;;;14.23;10.32;;;;;;;;;;4952358;28;20019;-63
2023/06/20 01:06:03;;;;;;;14.82;9.88;;;;;;;;;;4950680;28;20027;-63
2023/06/20 01:08:41;;;;;;;13.98;9.77;;;;;;;;;;4946810;28;20031;-63
2023/06/20 01:11:11;;;;;;;12.45;9.63;;;;;;;;;;4935523;29;20515;-63
2023/06/20 01:13:55;;;;;;;13.43;9.75;;;;;;;;;;4938734;28;20045;-63
2023/06/20 01:16:25;;;;;;;13.55;9.70;;;;;;;;;;4940585;28;20031;-62
2023/06/20 01:19:00;;;;;;;14.27;10.10;;;;;;;;;;4940843;28;20102;-61
2023/06/20 01:21:30;;;;;;;13.43;9.57;;;;;;;;;;4950924;28;20023;-63
2023/06/20 01:24:10;;;;;;;13.23;9.85;;;;;;;;;;4940076;28;20484;-62
2023/06/20 01:26:40;;;;;;;13.50;10.00;;;;;;;;;;4933924;29;20027;-63
2023/06/20 01:29:12;;;;;;;13.77;10.38;;;;;;;;;;4951268;29;20387;-63
2023/06/20 01:31:37;;;;;;;14.23;10.52;;;;;;;;;;4938989;28;20038;-63
2023/06/20 01:34:07;;;;;;;14.30;10.25;;;;;;;;;;4941367;28;20379;-64
2023/06/20 01:36:34;;;;;;;14.38;9.57;;;;;;;;;;4948782;28;20118;-62
2023/06/20 01:39:02;;;;;;;14.68;10.45;;;;;;;;;;4933615;29;20028;-62
2023/06/20 01:41:29;;;;;;;13.82;10.27;;;;;;;;;;4946174;28;20438;-61
2023/06/20 01:43:56;;;;;;;13.90;10.30;;;;;;;;;;4951918;28;20049;-62
2023/06/20 01:46:21;;;;;;;13.55;9.93;;;;;;;;;;4942477;28;20027;-61
2023/06/20 01:48:48;;;;;;;13.52;10.38;;;;;;;;;;4936462;28;20111;-64
2023/06/20 01:51:14;;;;;;;12.80;10.05;;;;;;;;;;4946298;28;20161;-62
2023/06/20 01:53:40;;;;;;;13.20;10.23;;;;;;;;;;4936336;28;20103;-63
2023/06/20 01:56:06;;;;;;;15.13;10.45;;;;;;;;;;4944318;29;20072;-63
2023/06/20 01:58:31;;;;;;;13.67;10.13;;;;;;;;;;4941821;29;20043;-64
2023/06/20 02:00:57;;;;;;;13.60;10.43;;;;;;;;;;4947396;29;21083;-64
2023/06/20 02:03:24;;;;;;;13.43;10.23;;;;;;;;;;4945163;28;20451;-67
2023/06/20 02:05:49;;;;;;;16.15;10.82;;;;;;;;;;4937663;28;20028;-61
2023/06/20 02:08:15;;;;;;;12.90;10.00;;;;;;;;;;4936512;28;20071;-61
2023/06/20 02:10:40;;;;;;;13.73;10.02;;;;;;;;;;4937246;29;20034;-62
2023/06/20 02:13:06;;;;;;;12.73;10.00;;;;;;;;;;4945980;29;20050;-63
2023/06/20 02:15:31;;;;;;;12.85;9.70;;;;;;;;;;4947379;28;20095;-62
2023/06/20 02:17:57;;;;;;;14.68;10.73;;;;;;;;;;4939663;28;20677;-62
2023/06/20 02:20:22;;;;;;;15.17;10.57;;;;;;;;;;4953638;28;20127;-62
2023/06/20 02:22:49;;;;;;;12.25;9.55;;;;;;;;;;4943858;28;20541;-63
2023/06/20 02:25:21;;;;;;;14.15;10.10;;;;;;;;;;4943779;28;20034;-63
2023/06/20 02:27:48;;;;;;;13.02;9.43;;;;;;;;;;4947727;28;20443;-63
2023/06/20 02:30:13;;;;;;;;;;;;;;;;;;4944627;28;20019;-63
2023/06/20 02:32:40;;;;;;;14.67;9.30;;;;;;;;;;4954639;29;19961;-61
2023/06/20 02:35:08;;;;;;;12.40;9.40;;;;;;;;;;4948266;28;20024;-63
2023/06/20 02:37:34;;;;;;;13.10;9.85;;;;;;;;;;4953157;28;20030;-61
2023/06/20 02:39:59;;;;;;;12.63;9.68;;;;;;;;;;4953399;28;20105;-64
2023/06/20 02:42:24;;;;;;;15.77;9.60;;;;;;;;;;4949609;28;20139;-62
2023/06/20 02:44:49;;;;;;;12.65;9.45;;;;;;;;;;4940605;28;20404;-62
2023/06/20 02:47:22;;;;;;;13.17;9.70;;;;;;;;;;4943513;28;20039;-63
2023/06/20 02:50:06;;;;;;;11.98;8.77;;;;;;;;;;4949117;28;20035;-63
2023/06/20 02:52:48;;;;;;;12.88;9.65;;;;;;;;;;4945957;29;20019;-63
2023/06/20 02:55:34;;;;;;;13.23;9.23;;;;;;;;;;4936549;28;20459;-63
2023/06/20 02:58:01;;;;;;;13.13;9.15;;;;;;;;;;4944498;28;20130;-63
2023/06/20 03:00:26;;;;;;;;;;;;;;;;;;4941742;28;20420;-63
2023/06/20 03:02:55;;;;;;;12.68;9.73;;;;;;;;;;4942060;29;19945;-64
2023/06/20 03:05:21;;;;;;;13.27;10.07;;;;;;;;;;4937640;28;20110;-63
2023/06/20 03:07:47;;;;;;;13.98;9.60;;;;;;;;;;4946868;28;20476;-63
2023/06/20 03:10:12;;;;;;;;;;;;;;;;;;4943719;29;20031;-64
2023/06/20 03:12:38;;;;;;;12.82;9.52;;;;;;;;;;4935021;29;19915;-63
2023/06/20 03:15:04;;;;;;;12.60;9.55;;;;;;;;;;4946960;28;20054;-62
2023/06/20 03:17:29;;;;;;;12.52;9.52;;;;;;;;;;4940104;29;20438;-63
2023/06/20 03:19:54;;;;;;;12.48;9.60;;;;;;;;;;4939033;28;20038;-63
2023/06/20 03:22:19;;;;;;;12.50;9.13;;;;;;;;;;4934203;29;20491;-63
2023/06/20 03:24:47;;;;;;;11.48;9.02;;;;;;;;;;4935828;28;20020;-62
2023/06/20 03:27:12;;;;;;;11.38;9.23;;;;;;;;;;4943067;29;20132;-62
2023/06/20 03:29:37;;;;;;;13.90;10.23;;;;;;;;;;4937844;29;20023;-61
2023/06/20 03:32:03;;;;;;;14.50;9.57;;;;;;;;;;4937103;28;20119;-63
2023/06/20 03:34:29;;;;;;;14.23;10.23;;;;;;;;;;4938442;28;20027;-63
2023/06/20 03:36:55;;;;;;;12.88;9.40;;;;;;;;;;4954135;28;20506;-63
2023/06/20 03:39:20;;;;;;;13.90;10.05;;;;;;;;;;4940628;28;20060;-63
2023/06/20 03:41:45;;;;;;;12.95;9.45;;;;;;;;;;4942819;29;20031;-63
2023/06/20 03:44:10;;;;;;;14.77;10.17;;;;;;;;;;4950845;28;20012;-63
2023/06/20 03:46:35;;;;;;;12.35;10.05;;;;;;;;;;4936071;28;20024;-63
2023/06/20 03:49:00;;;;;;;12.10;9.68;;;;;;;;;;4942328;28;20475;-61
2023/06/20 03:51:25;;;;;;;15.43;10.05;;;;;;;;;;4945180;28;20059;-62
2023/06/20 03:53:51;;;;;;;13.55;9.23;;;;;;;;;;4936090;28;20065;-62
2023/06/20 03:56:16;;;;;;;12.98;9.48;;;;;;;;;;4942280;29;20503;-63
2023/06/20 03:58:41;;;;;;;13.80;9.32;;;;;;;;;;4939025;29;20058;-61
2023/06/20 04:01:06;;;;;;;13.63;9.43;;;;;;;;;;4938350;29;20044;-63
2023/06/20 04:03:32;;;;;;;12.65;9.15;;;;;;;;;;4938306;28;20102;-61
2023/06/20 04:06:01;;;;;;;14.20;9.83;;;;;;;;;;4950449;28;20019;-62
2023/06/20 04:08:27;;;;;;;13.68;9.38;;;;;;;;;;4939669;29;20999;-61
2023/06/20 04:10:52;;;;;;;12.90;9.68;;;;;;;;;;4941994;29;20531;-63
2023/06/20 04:13:17;;;;;;;12.82;9.30;;;;;;;;;;4933933;29;20112;-62
2023/06/20 04:15:42;;;;;;;13.18;9.27;;;;;;;;;;4940564;29;20372;-62
2023/06/20 04:18:07;;;;;;;14.57;9.07;;;;;;;;;;4934659;28;20044;-62
2023/06/20 04:20:32;;;;;;;13.07;9.17;;;;;;;;;;4936367;28;20043;-63
2023/06/20 04:22:58;;;;;;;13.03;9.00;;;;;;;;;;4938713;28;20027;-62
2023/06/20 04:25:23;;;;;;;14.50;9.65;;;;;;;;;;4953315;28;20038;-63
2023/06/20 04:27:53;;;;;;;13.63;9.23;;;;;;;;;;4949111;28;20022;-63
2023/06/20 04:30:18;;;;;;;11.63;9.25;;;;;;;;;;4938844;29;20053;-61
2023/06/20 04:32:44;;;;;;;14.20;9.30;;;;;;;;;;4944287;28;20054;-62
2023/06/20 04:35:10;;;;;;;11.45;8.32;;;;;;;;;;4952810;28;20466;-62
2023/06/20 04:37:35;;;;;;;11.70;8.68;;;;;;;;;;4940448;28;20144;-62
2023/06/20 04:40:01;;;;;;;14.45;9.15;;;;;;;;;;4933943;28;20119;-62
2023/06/20 04:42:26;;;;;;;11.60;8.67;;;;;;;;;;4946512;28;20384;-61
2023/06/20 04:44:51;;;;;;;12.48;9.13;;;;;;;;;;4938362;29;20027;-63
2023/06/20 04:47:16;;;;;;;14.68;9.35;;;;;;;;;;4948161;28;20069;-62
2023/06/20 04:49:43;;;;;;;13.60;8.97;;;;;;;;;;4940754;28;20042;-61
2023/06/20 04:52:08;;;;;;;16.10;8.65;;;;;;;;;;4935462;28;20221;-62
2023/06/20 04:54:33;;;;;;;11.45;8.65;;;;;;;;;;4941056;28;20638;-63
2023/06/20 04:57:02;;;;;;;13.30;8.75;;;;;;;;;;4942549;28;20047;-62
2023/06/20 04:59:27;;;;;;;13.02;8.27;;;;;;;;;;4948185;28;20026;-62
2023/06/20 05:01:52;;;;;;;12.77;8.30;;;;;;;;;;4945044;28;20020;-63
2023/06/20 05:04:17;;;;;;;;;;;;;;;;;;4940137;29;20039;-62
2023/06/20 05:06:42;;;;;;;12.50;8.57;;;;;;;;;;4942016;28;19910;-62
2023/06/20 05:09:08;;;;;;;11.63;8.68;;;;;;;;;;4951299;28;20447;-61
2023/06/20 05:11:33;;;;;;;;;;;;;;;;;;4946135;28;20023;-63
2023/06/20 05:13:58;;;;;;;14.85;9.00;;;;;;;;;;4948692;28;19917;-62
2023/06/20 05:16:23;;;;;;;;;;;;;;;;;;4949070;28;20102;-62
2023/06/20 05:18:48;;;;;;;11.32;8.00;;;;;;;;;;4952602;29;19907;-64
2023/06/20 05:21:13;;;;;;;;;;;;;;;;;;4951487;28;20035;-63
2023/06/20 05:23:38;;;;;;;10.80;8.50;;;;;;;;;;4949854;28;20390;-64
2023/06/20 05:26:03;;;;;;;12.80;8.38;;;;;;;;;;4944544;28;20079;-62
2023/06/20 05:28:29;;;;;;;11.38;8.70;;;;;;;;;;4947187;28;20019;-63
2023/06/20 05:30:54;;;;;;;11.43;8.60;;;;;;;;;;4956978;28;20031;-62
2023/06/20 05:33:19;;;;;;;12.82;8.52;;;;;;;;;;4956414;28;20047;-62
2023/06/20 05:35:46;;;;;;;9.48;7.85;;;;;;;;;;4951047;28;20030;-62
2023/06/20 05:38:11;;;;;;;10.70;7.93;;;;;;;;;;4955046;29;20131;-65
2023/06/20 05:40:36;;;;;;;14.20;7.90;;;;;;;;;;4949045;28;20099;-63
2023/06/20 05:43:01;;;;;;;10.10;8.03;;;;;;;;;;4942083;28;20042;-63
2023/06/20 05:45:27;;;;;;;10.65;7.57;;;;;;;;;;4951436;28;20020;-63
2023/06/20 05:47:52;;;;;;;;;;;;;;;;;;4956086;28;20042;-62
2023/06/20 05:50:17;;;;;;;10.30;7.80;;;;;;;;;;4948541;29;19907;-61
2023/06/20 05:52:42;;;;;;;12.43;7.70;;;;;;;;;;4944900;28;20019;-63
2023/06/20 05:55:07;;;;;;;11.63;8.38;;;;;;;;;;4951084;28;20493;-61
2023/06/20 05:57:32;;;;;;;11.23;8.30;;;;;;;;;;4938076;29;20032;-63
2023/06/20 05:59:58;;;;;;;12.40;8.38;;;;;;;;;;4955537;28;20491;-62
2023/06/20 06:02:23;;;;;;;11.10;8.40;;;;;;;;;;4953787;28;20059;-62
2023/06/20 06:04:49;;;;;;;11.68;8.15;;;;;;;;;;4954790;28;20074;-62
2023/06/20 06:07:14;;;;;;;10.95;8.75;;;;;;;;;;4954139;28;20015;-63
2023/06/20 06:09:39;;;;;;;9.73;8.30;;;;;;;;;;4943974;28;20042;-63
2023/06/20 06:12:04;;;;;;;10.48;7.93;;;;;;;;;;4949388;28;20046;-62
2023/06/20 06:14:30;;;;;;;11.30;8.30;;;;;;;;;;4950646;28;20090;-61
2023/06/20 06:16:55;;;;;;;12.35;7.70;;;;;;;;;;4948578;29;20105;-62
2023/06/20 06:19:20;;;;;;;12.00;8.38;;;;;;;;;;4952304;28;20085;-62
2023/06/20 06:21:47;;;;;;;10.90;8.27;;;;;;;;;;4946674;28;20050;-61
2023/06/20 06:24:12;;;;;;;11.23;8.18;;;;;;;;;;4950054;28;20058;-62
2023/06/20 06:26:37;;;;;;;14.70;8.45;;;;;;;;;;4947858;28;20059;-63
2023/06/20 06:29:04;;;;;;;12.70;8.50;;;;;;;;;;4945855;28;20487;-63
2023/06/20 06:31:29;;;;;;;10.63;7.88;;;;;;;;;;4937918;29;20024;-63
2023/06/20 06:33:56;;;;;;;11.60;8.18;;;;;;;;;;4947523;29;20049;-63
2023/06/20 06:36:22;;;;;;;12.80;8.10;;;;;;;;;;4955082;28;20028;-62
2023/06/20 06:38:49;;;;;;;11.40;8.05;;;;;;;;;;4938114;28;20028;-62
2023/06/20 06:41:14;;;;;;;10.63;7.97;;;;;;;;;;4960716;28;20018;-63
2023/06/20 06:43:39;;;;;;;10.32;8.32;;;;;;;;;;4954557;28;20081;-64
2023/06/20 06:46:05;;;;;;;11.82;7.97;;;;;;;;;;4955206;28;20058;-61
2023/06/20 06:48:30;;;;;;;12.18;8.00;;;;;;;;;;4954998;28;20027;-62
2023/06/20 06:50:55;;;;;;;14.15;8.00;;;;;;;;;;4955261;28;20057;-62
2023/06/20 06:53:20;;;;;;;;;;;;;;;;;;4953995;28;20093;-62
2023/06/20 06:55:46;;;;;;;13.77;8.38;;;;;;;;;;4965957;28;19914;-62
2023/06/20 06:58:11;;;;;;;;;;;;;;;;;;4975114;28;20426;-63
2023/06/20 07:00:36;;;;;;;11.20;7.57;;;;;;;;;;4968307;28;19981;-63
2023/06/20 07:03:01;;;;;;;;;;;;;;;;;;4952077;28;20043;-63
2023/06/20 07:05:26;;;;;;;13.38;7.57;;;;;;;;;;4955286;29;20293;-63
2023/06/20 07:07:51;;;;;;;12.00;8.03;;;;;;;;;;4955122;28;20278;-64
2023/06/20 07:10:17;;;;;;;13.60;8.27;;;;;;;;;;4948614;28;20027;-62
2023/06/20 07:12:42;;;;;;;12.97;7.77;;;;;;;;;;4965153;28;20026;-62
2023/06/20 07:15:07;;;;;;;12.82;7.90;;;;;;;;;;4973871;28;20378;-62
2023/06/20 07:17:33;;;;;;;11.57;7.50;;;;;;;;;;4973997;28;20505;-63
2023/06/20 07:19:58;;;;;;;;;;;;;;;;;;4974593;28;20022;-63
2023/06/20 07:22:24;;;;;;;10.98;8.43;;;;;;;;;;4973038;28;19910;-63
2023/06/20 07:24:49;;;;;;;;;;;;;;;;;;4967495;28;20070;-63
2023/06/20 07:27:14;;;;;;;14.13;8.50;;;;;;;;;;4965731;28;19949;-63
2023/06/20 07:29:39;;;;;;;;;;;;;;;;;;4974380;28;20031;-64
2023/06/20 07:32:04;;;;;;;12.10;8.18;;;;;;;;;;4972976;28;19916;-63
2023/06/20 07:34:30;;;;;;;10.05;7.63;;;;;;;;;;4970025;28;20045;-63
2023/06/20 07:36:55;;;;;;;10.47;7.60;;;;;;;;;;4962291;28;20476;-62
2023/06/20 07:39:20;;;;;;;11.10;8.40;;;;;;;;;;4972795;28;20089;-62
2023/06/20 07:41:46;;;;;;;;;;;;;;;;;;4958023;28;20050;-62
2023/06/20 07:44:11;;;;;;;11.80;7.97;;;;;;;;;;4935514;29;19907;-61
2023/06/20 07:46:36;;;;;;;10.70;7.37;;;;;;;;;;4942255;28;20073;-63
2023/06/20 07:49:01;;;;;;;;;;;;;;;;;;4963090;28;20086;-63
2023/06/20 07:51:31;;;;;;;11.35;8.00;;;;;;;;;;4953820;28;19906;-63
2023/06/20 07:53:56;;;;;;;11.02;8.65;;;;;;;;;;4953280;28;20102;-62
2023/06/20 07:56:21;;;;;;;;;;;;;;;;;;4954421;28;20115;-62
2023/06/20 07:58:47;;;;;;;10.45;8.02;;;;;;;;;;4954224;28;20278;-62
2023/06/20 08:01:12;;;;;;;;;;;;;;;;;;4954864;28;20102;-61
2023/06/20 08:03:37;;;;;;;13.00;8.35;;;;;;;;;;4960928;28;19921;-62
2023/06/20 08:06:02;;;;;;;;;;;;;;;;;;4954507;28;20024;-62
2023/06/20 08:08:28;;;;;;;10.73;7.85;;;;;;;;;;4953744;28;19906;-63
2023/06/20 08:10:53;;;;;;;;;;;;;;;;;;4953963;28;20011;-61
2023/06/20 08:13:18;;;;;;;11.77;8.50;;;;;;;;;;4948619;28;19917;-63
2023/06/20 08:15:43;;;;;;;;;;;;;;;;;;4955449;28;20028;-64
2023/06/20 08:18:08;;;;;;;10.88;7.82;;;;;;;;;;4959559;28;19918;-63
2023/06/20 08:20:33;;;;;;;11.75;7.82;;;;;;;;;;4964896;28;20053;-63
2023/06/20 08:22:58;;;;;;;;;;;;;;;;;;4972832;28;20154;-63
2023/06/20 08:25:23;;;;;;;10.88;7.82;;;;;;;;;;4972549;28;20333;-63
2023/06/20 08:27:49;;;;;;;10.50;7.97;;;;;;;;;;4972923;28;20102;-64
2023/06/20 08:30:14;;;;;;;12.13;8.13;;;;;;;;;;4967100;28;20550;-64
2023/06/20 08:32:41;;;;;;;;;;;;;;;;;;4964144;28;20021;-62
2023/06/20 08:35:08;;;;;;;14.02;9.65;;;;;;;;;;4972671;28;19934;-61
2023/06/20 08:37:33;;;;;;;12.25;8.65;;;;;;;;;;4972359;28;20033;-62
2023/06/20 08:39:58;;;;;;;;;;;;;;;;;;4955748;28;20248;-60
2023/06/20 08:42:23;;;;;;;14.93;8.93;;;;;;;;;;4954956;28;19999;-62
2023/06/20 08:44:49;;;;;;;12.65;8.55;;;;;;;;;;4961518;28;20042;-62
2023/06/20 08:47:14;;;;;;;;;;;;;;;;;;4972171;28;20540;-63
2023/06/20 08:49:40;;;;;;;9.60;7.85;;;;;;;;;;4973737;28;19958;-61
2023/06/20 08:52:09;;;;;;;10.25;8.30;;;;;;;;;;4956520;28;20015;-61
2023/06/20 08:54:36;;;;;;;11.52;8.73;;;;;;;;;;4951478;28;20023;-63
2023/06/20 08:57:02;;;;;;;12.95;8.48;;;;;;;;;;4948765;28;20032;-62
2023/06/20 08:59:27;;;;;;;;;;;;;;;;;;4956296;28;21051;-63
2023/06/20 09:01:52;;;;;;;14.55;8.52;;;;;;;;;;4954972;28;20378;-63
2023/06/20 09:04:17;;;;;;;;;;;;;;;;;;4955309;28;20110;-62
2023/06/20 09:06:42;;;;;;;13.88;8.20;;;;;;;;;;4957302;28;19910;-63
2023/06/20 09:09:07;;;;;;;;;;;;;;;;;;4962313;28;20051;-63
2023/06/20 09:11:38;;;;;;;9.88;7.40;;;;;;;;;;4954210;28;19917;-63
2023/06/20 09:14:03;;;;;;;10.63;6.88;;;;;;;;;;4933215;29;20106;-63
2023/06/20 09:16:28;;;;;;;9.73;6.73;;;;;;;;;;4933665;29;20031;-63
2023/06/20 09:18:53;;;;;;;;;;;;;;;;;;4933895;29;20480;-63
2023/06/20 09:21:19;;;;;;;15.02;7.90;;;;;;;;;;4939861;28;19929;-63
2023/06/20 09:23:44;;;;;;;;;;;;;;;;;;4958650;28;20082;-63
2023/06/20 09:26:14;;;;;;;11.13;7.85;;;;;;;;;;4952931;29;20278;-63
2023/06/20 09:28:39;;;;;;;9.90;7.35;;;;;;;;;;4955631;28;20041;-62
2023/06/20 09:31:04;;;;;;;;;;;;;;;;;;4966083;28;20030;-63
2023/06/20 09:33:30;;;;;;;10.15;5.93;;;;;;;;;;4973215;28;19948;-63
2023/06/20 09:35:55;;;;;;;;;;;;;;;;;;4973390;28;20019;-63
2023/06/20 09:38:20;;;;;;;8.50;5.63;;;;;;;;;;4971534;28;20009;-63
2023/06/20 09:40:45;;;;;;;8.03;5.40;;;;;;;;;;4972230;28;20030;-64
2023/06/20 09:43:10;;;;;;;;;;;;;;;;;;4961003;28;20031;-63
2023/06/20 09:45:36;;;;;;;8.82;5.82;;;;;;;;;;4960466;28;20032;-64
2023/06/20 09:48:01;;;;;;;;;;;;;;;;;;4969199;28;20029;-62
2023/06/20 09:50:27;;;;;;;9.38;5.47;;;;;;;;;;4957435;28;20389;-63
2023/06/20 09:52:58;;;;;;;7.97;5.15;;;;;;;;;;4951611;28;20023;-63
2023/06/20 09:55:24;;;;;;;9.57;5.05;;;;;;;;;;4951940;28;20094;-62
2023/06/20 09:57:49;;;;;;;;;;;;;;;;;;4953793;28;20031;-62
2023/06/20 10:00:16;;;;;;;7.47;5.10;;;;;;;;;;4958238;28;19957;-62
2023/06/20 10:02:43;;;;;;;8.55;4.95;;;;;;;;;;4961513;28;20051;-63
2023/06/20 10:05:09;;;;;;;9.68;5.28;;;;;;;;;;4959575;28;20034;-61
2023/06/20 10:07:34;;;;;;;;;;;;;;;;;;4952854;28;20027;-62
2023/06/20 10:10:00;;;;;;;8.68;5.72;;;;;;;;;;4952177;28;19965;-64
2023/06/20 10:12:25;;;;;;;10.52;5.88;;;;;;;;;;4951580;28;20035;-63
2023/06/20 10:14:51;;;;;;;10.18;5.78;;;;;;;;;;4945905;28;20027;-62
2023/06/20 10:17:16;;;;;;;;;;;;;;;;;;4944966;28;20098;-61
2023/06/20 10:19:48;;;;;;;7.65;5.72;;;;;;;;;;4957957;28;19910;-64
2023/06/20 10:22:13;;;;;;;8.45;5.75;;;;;;;;;;4970341;28;20023;-63
2023/06/20 10:24:38;;;;;;;;;;;;;;;;;;4953416;29;20804;-63
2023/06/20 10:27:04;;;;;;;8.07;6.25;;;;;;;;;;4959074;28;21687;-64
2023/06/20 10:29:38;;;;;;;9.68;6.13;;;;;;;;;;4966730;28;20073;-64
2023/06/20 10:32:04;;;;;;;8.70;6.53;;;;;;;;;;4950390;28;20019;-63
2023/06/20 10:34:36;;;;;;;13.85;5.90;;;;;;;;;;4937710;28;20492;-64
2023/06/20 10:37:08;;;;;;;7.97;6.03;;;;;;;;;;4935027;28;20168;-61
2023/06/20 10:39:33;;;;;;;;;;;;;;;;;;4967054;28;20087;-61
2023/06/20 10:42:05;;;;;;;8.98;5.82;;;;;;;;;;4959134;28;20009;-62
2023/06/20 10:44:30;;;;;;;;;;;;;;;;;;4967377;28;20509;-61
2023/06/20 10:46:55;;;;;;;9.40;6.35;;;;;;;;;;4974568;28;20367;-62
2023/06/20 10:49:20;;;;;;;8.82;6.00;;;;;;;;;;4958085;28;20051;-63
2023/06/20 10:51:45;;;;;;;;;;;;;;;;;;4955408;28;20019;-64
2023/06/20 10:54:11;;;;;;;8.30;6.40;;;;;;;;;;4954412;28;20288;-63
2023/06/20 10:56:36;;;;;;;9.57;6.20;;;;;;;;;;4958476;28;20046;-63
2023/06/20 10:59:01;;;;;;;;;;;;;;;;;;4971701;28;20033;-64
2023/06/20 11:01:27;;;;;;;9.43;6.55;;;;;;;;;;4953532;28;19910;-64
2023/06/20 11:03:52;;;;;;;;;;;;;;;;;;4965950;28;20507;-62
2023/06/20 11:06:18;;;;;;;9.90;6.95;;;;;;;;;;4973927;28;20328;-63
2023/06/20 11:08:45;;;;;;;8.55;6.30;;;;;;;;;;4974017;28;20027;-64
2023/06/20 11:11:10;;;;;;;9.02;6.63;;;;;;;;;;4974291;28;20031;-62
2023/06/20 11:13:35;;;;;;;;;;;;;;;;;;4973902;28;20019;-63
2023/06/20 11:16:00;;;;;;;10.95;6.68;;;;;;;;;;4965031;28;20293;-63
2023/06/20 11:18:25;;;;;;;10.30;6.40;;;;;;;;;;4965710;28;20035;-62
2023/06/20 11:20:51;;;;;;;11.00;7.22;;;;;;;;;;4974149;28;20033;-64
2023/06/20 11:23:16;;;;;;;;;;;;;;;;;;4973961;28;20449;-63
2023/06/20 11:25:41;;;;;;;8.82;6.43;;;;;;;;;;4973885;28;19916;-63
2023/06/20 11:28:07;;;;;;;;;;;;;;;;;;4973721;28;20026;-64
2023/06/20 11:30:32;;;;;;;10.48;6.47;;;;;;;;;;4958661;28;20001;-62
2023/06/20 11:32:57;;;;;;;;;;;;;;;;;;4952260;28;20118;-62
2023/06/20 11:35:23;;;;;;;9.63;6.43;;;;;;;;;;4952244;28;20305;-63
2023/06/20 11:37:48;;;;;;;9.30;6.28;;;;;;;;;;4968736;28;20047;-63
2023/06/20 11:40:13;;;;;;;;;;;;;;;;;;4974424;28;20034;-64
2023/06/20 11:42:38;;;;;;;8.48;6.72;;;;;;;;;;4972588;28;19910;-61
2023/06/20 11:45:09;;;;;;;10.50;6.87;;;;;;;;;;4973466;28;20065;-63
2023/06/20 11:47:35;;;;;;;9.27;6.50;;;;;;;;;;4961939;28;20035;-62
2023/06/20 11:50:00;;;;;;;;;;;;;;;;;;4960433;28;20506;-63
2023/06/20 11:52:29;;;;;;;8.82;6.47;;;;;;;;;;4973623;28;19914;-62
2023/06/20 11:54:55;;;;;;;9.45;6.85;;;;;;;;;;4974592;28;20045;-63
2023/06/20 11:57:21;;;;;;;8.63;6.82;;;;;;;;;;4974688;28;20089;-61
2023/06/20 11:59:46;;;;;;;;;;;;;;;;;;4974984;28;20023;-64
2023/06/20 12:02:12;;;;;;;8.75;6.85;;;;;;;;;;4973219;28;19913;-62
2023/06/20 12:04:42;;;;;;;11.48;6.72;;;;;;;;;;4972696;28;20042;-62
2023/06/20 12:07:07;;;;;;;9.00;6.57;;;;;;;;;;4965252;28;20057;-62
2023/06/20 12:09:33;;;;;;;;;;;;;;;;;;4973566;28;20046;-63
2023/06/20 12:11:58;;;;;;;7.93;6.00;;;;;;;;;;4972237;28;19961;-61
2023/06/20 12:14:23;;;;;;;;;;;;;;;;;;4973071;28;20030;-62
2023/06/20 12:16:51;;;;;;;9.02;6.63;;;;;;;;;;4972707;28;19914;-61
2023/06/20 12:19:19;;;;;;;9.95;6.63;;;;;;;;;;4972947;28;20055;-62
2023/06/20 12:21:44;;;;;;;7.78;6.25;;;;;;;;;;4957472;28;20050;-62
2023/06/20 12:24:09;;;;;;;;;;;;;;;;;;4963117;28;20383;-62
2023/06/20 12:26:34;;;;;;;9.00;6.38;;;;;;;;;;4972514;28;19910;-63
2023/06/20 12:29:00;;;;;;;9.25;6.60;;;;;;;;;;4972786;28;20522;-62
2023/06/20 12:31:25;;;;;;;7.90;6.40;;;;;;;;;;4952325;28;20106;-62
2023/06/20 12:33:50;;;;;;;9.60;6.88;;;;;;;;;;4951825;28;20035;-63
2023/06/20 12:36:16;;;;;;;9.90;6.63;;;;;;;;;;4951999;28;20588;-64
2023/06/20 12:38:41;;;;;;;;;;;;;;;;;;4963758;28;20478;-63
2023/06/20 12:41:06;;;;;;;8.77;6.80;;;;;;;;;;4972562;28;19906;-64
2023/06/20 12:43:31;;;;;;;8.85;6.70;;;;;;;;;;4961603;28;20047;-64
2023/06/20 12:45:58;;;;;;;;;;;;;;;;;;4946321;28;20046;-64
2023/06/20 12:48:24;;;;;;;10.05;6.80;;;;;;;;;;4960011;28;19917;-64
2023/06/20 12:50:50;;;;;;;;;;;;;;;;;;4968307;28;20019;-64
2023/06/20 12:53:15;;;;;;;10.55;7.57;;;;;;;;;;4971691;28;20286;-61
2023/06/20 12:55:40;;;;;;;;;;;;;;;;;;4970168;28;20034;-62
2023/06/20 12:58:05;;;;;;;10.27;8.23;;;;;;;;;;4954006;28;19961;-62
2023/06/20 13:00:31;;;;;;;;;;;;;;;;;;4964304;28;20023;-62
2023/06/20 13:02:56;;;;;;;10.53;7.90;;;;;;;;;;4964684;28;19906;-62
2023/06/20 13:05:22;;;;;;;10.60;8.20;;;;;;;;;;4964015;28;20446;-62
2023/06/20 13:07:47;;;;;;;11.60;8.18;;;;;;;;;;4972069;28;20023;-64
2023/06/20 13:10:12;;;;;;;;;;;;;;;;;;4972600;28;20019;-63
2023/06/20 13:12:39;;;;;;;11.00;8.02;;;;;;;;;;4971344;28;19910;-64
2023/06/20 13:15:05;;;;;;;11.13;8.02;;;;;;;;;;4971757;28;20451;-64
2023/06/20 13:17:30;;;;;;;;;;;;;;;;;;4953241;28;20126;-61
2023/06/20 13:19:55;;;;;;;10.43;8.07;;;;;;;;;;4956567;28;19906;-63
2023/06/20 13:22:21;;;;;;;10.07;8.05;;;;;;;;;;4951904;28;20026;-63
2023/06/20 13:24:46;;;;;;;10.43;7.93;;;;;;;;;;4952620;28;20452;-61
2023/06/20 13:27:11;;;;;;;10.55;8.48;;;;;;;;;;4952657;28;20035;-64
2023/06/20 13:29:37;;;;;;;10.70;7.97;;;;;;;;;;4952412;28;20035;-62
2023/06/20 13:32:02;;;;;;;;;;;;;;;;;;4952219;28;20083;-63
2023/06/20 13:34:27;;;;;;;10.50;7.85;;;;;;;;;;4958539;28;19910;-64
2023/06/20 13:36:53;;;;;;;;;;;;;;;;;;4968099;28;20027;-62
2023/06/20 13:39:19;;;;;;;11.53;7.47;;;;;;;;;;4971904;28;19906;-64
2023/06/20 13:41:44;;;;;;;;;;;;;;;;;;4971726;28;20964;-62
2023/06/20 13:44:09;;;;;;;9.18;6.72;;;;;;;;;;4958982;28;19911;-64
2023/06/20 13:46:34;;;;;;;10.48;7.38;;;;;;;;;;4960378;28;20371;-63
2023/06/20 13:49:01;;;;;;;9.82;6.88;;;;;;;;;;4942619;28;20051;-62
2023/06/20 13:51:26;;;;;;;11.13;7.18;;;;;;;;;;4951491;28;20090;-63
2023/06/20 13:53:52;;;;;;;;;;;;;;;;;;4959642;28;20023;-63
2023/06/20 13:56:18;;;;;;;14.10;8.57;;;;;;;;;;4954013;28;19910;-64
2023/06/20 13:58:43;;;;;;;12.40;9.10;;;;;;;;;;4969774;28;20023;-63
2023/06/20 14:01:09;;;;;;;;;;;;;;;;;;4975770;28;20043;-63
2023/06/20 14:03:34;;;;;;;11.18;8.38;;;;;;;;;;4970650;28;19956;-63
2023/06/20 14:06:01;;;;;;;9.60;7.80;;;;;;;;;;4958917;28;20499;-62
2023/06/20 14:08:26;;;;;;;12.45;8.43;;;;;;;;;;4933895;29;20079;-64
2023/06/20 14:10:51;;;;;;;;;;;;;;;;;;4931120;28;20435;-64
2023/06/20 14:13:17;;;;;;;12.20;8.82;;;;;;;;;;4945384;28;19911;-61
2023/06/20 14:15:42;;;;;;;10.45;8.15;;;;;;;;;;4945090;28;20452;-63
2023/06/20 14:18:07;;;;;;;12.27;8.27;;;;;;;;;;4951911;28;20058;-63
2023/06/20 14:20:32;;;;;;;;;;;;;;;;;;4944346;28;20050;-63
2023/06/20 14:22:58;;;;;;;11.38;8.15;;;;;;;;;;4947236;29;19914;-64
2023/06/20 14:25:23;;;;;;;12.70;8.57;;;;;;;;;;4944824;29;20138;-64
2023/06/20 14:27:48;;;;;;;11.10;8.90;;;;;;;;;;4939970;28;20487;-62
2023/06/20 14:30:13;;;;;;;10.95;8.18;;;;;;;;;;4945479;28;20031;-63
2023/06/20 14:32:38;;;;;;;;;;;;;;;;;;4948892;28;20043;-62
2023/06/20 14:35:04;;;;;;;9.15;7.40;;;;;;;;;;4951323;29;19910;-64
2023/06/20 14:37:29;;;;;;;10.65;8.15;;;;;;;;;;4945875;28;20046;-63
2023/06/20 14:39:56;;;;;;;9.40;7.63;;;;;;;;;;4945348;28;20024;-63
2023/06/20 14:42:21;;;;;;;9.90;8.10;;;;;;;;;;4950234;28;20087;-62
2023/06/20 14:44:46;;;;;;;;;;;;;;;;;;4952271;28;20027;-62